This is the latest recevied weather packets stored in our database for station/object KI5RAB. If no packets are shown the sender has not sent any weather packets the latest 1 day(s).
| Time | Temp. | Humidity | Pressure | Rain* | Wind** | Luminosity | Snow |
|---|---|---|---|---|---|---|---|
| 1778096052 | 29.44° C | 69% | 1012.7 hPa | 0 mm | - | 463 W/m² | - |
| 1778094232 | 28.33° C | 73% | 1013.1 hPa | 0 mm | - | 622 W/m² | - |
| 1778093626 | 29.44° C | 69% | 1013.3 hPa | 0 mm | - | 332 W/m² | - |
| 1778093323 | 28.89° C | 70% | 1013.2 hPa | 0 mm | - | 719 W/m² | - |
| 1778093020 | 28.89° C | 74% | 1013.3 hPa | 0 mm | - | 893 W/m² | - |
| 1778092110 | 27.78° C | 76% | 1013.5 hPa | 0 mm | - | 465 W/m² | - |
| 1778091807 | 27.78° C | 77% | 1013.6 hPa | 0 mm | - | 631 W/m² | - |
| 1778091505 | 27.78° C | 78% | 1013.6 hPa | 0 mm | - | 683 W/m² | - |
| 1778090292 | 26.67° C | 82% | 1014 hPa | 0 mm | - | 168 W/m² | - |
| 1778089989 | 26.67° C | 82% | 1013.9 hPa | 0 mm | - | 181 W/m² | - |
| 1778088171 | 26.11° C | 82% | 1014 hPa | 0 mm | - | 118 W/m² | - |
| 1778086052 | 26.11° C | 81% | 1014.1 hPa | 0 mm | - | 121 W/m² | - |
| 1778085140 | 25.56° C | 84% | 1014.2 hPa | 0 mm | - | 272 W/m² | - |
| 1778084231 | 25.56° C | 85% | 1014 hPa | 0 mm | - | 196 W/m² | - |
| 1778083929 | 26.11° C | 84% | 1014.1 hPa | 0 mm | - | 136 W/m² | - |
| 1778083021 | 25.56° C | 86% | 1013.8 hPa | 0 mm | - | 178 W/m² | - |
| 1778080974 | 24.44° C | 90% | 1013.5 hPa | 0 mm | - | 115 W/m² | - |
| 1778080673 | 24.44° C | 91% | 1013.4 hPa | 0 mm | - | 96 W/m² | - |
| 1778080369 | 24.44° C | 91% | 1013.4 hPa | 0 mm | - | 86 W/m² | - |
| 1778079763 | 24.44° C | 92% | 1013.2 hPa | 0 mm | - | 75 W/m² | - |
| 1778079156 | 23.89° C | 92% | 1013.4 hPa | 0 mm | - | 47 W/m² | - |
| 1778078248 | 23.89° C | 92% | 1013.1 hPa | 0 mm | - | 35 W/m² | - |
| 1778077644 | 23.89° C | 92% | 1012.7 hPa | 0 mm | - | 29 W/m² | - |
| 1778076435 | 23.89° C | 91% | 1012.8 hPa | 0 mm | - | 22 W/m² | - |
| 1778074615 | 23.89° C | 90% | 1012.1 hPa | 0 mm | - | 37 W/m² | - |
* Rain latest hour (hover to see other rain measurements)
** Current wind speed in m/s (hover to see current wind gust speed)